createdAt,value
2022-08-31T00:00:11.497Z,2.65
2022-08-31T00:02:57.455Z,1.85
2022-08-31T00:08:43.044Z,2.30
2022-08-31T00:11:13.981Z,2.42
2022-08-31T00:13:46.572Z,2.30
2022-08-31T00:16:13.696Z,2.33
2022-08-31T00:18:40.858Z,2.25
2022-08-31T00:21:07.505Z,2.58
2022-08-31T00:23:34.594Z,2.30
2022-08-31T00:26:06.612Z,2.65
2022-08-31T00:28:33.257Z,2.15
2022-08-31T00:31:00.242Z,2.38
2022-08-31T00:33:26.897Z,2.35
2022-08-31T00:35:53.657Z,2.30
2022-08-31T00:38:22.062Z,2.33
2022-08-31T00:40:48.981Z,2.53
2022-08-31T00:43:54.037Z,2.17
2022-08-31T00:46:27.884Z,2.95
2022-08-31T00:49:24.391Z,2.40
2022-08-31T00:52:22.578Z,2.20
2022-08-31T00:54:59.209Z,2.03
2022-08-31T00:57:34.506Z,2.35
2022-08-31T01:00:07.391Z,1.92
2022-08-31T01:02:34.578Z,2.17
2022-08-31T01:05:01.571Z,2.00
2022-08-31T01:07:28.376Z,2.20
2022-08-31T01:09:56.676Z,2.28
2022-08-31T01:12:25.776Z,2.40
2022-08-31T01:14:53.219Z,2.40
2022-08-31T01:17:24.156Z,2.97
2022-08-31T01:20:37.810Z,2.20
2022-08-31T01:23:18.198Z,2.47
2022-08-31T01:25:51.580Z,2.35
2022-08-31T01:28:21.484Z,2.42
2022-08-31T01:31:05.398Z,2.63
2022-08-31T01:33:36.731Z,2.13
2022-08-31T01:36:04.585Z,3.03
2022-08-31T01:38:33.390Z,2.22
2022-08-31T01:41:04.232Z,2.17
2022-08-31T01:43:34.114Z,2.20
2022-08-31T01:46:06.257Z,2.28
2022-08-31T01:48:37.273Z,2.25
2022-08-31T01:51:12.294Z,1.92
2022-08-31T01:53:45.585Z,2.25
2022-08-31T01:56:18.763Z,2.40
2022-08-31T01:58:45.770Z,3.95
2022-08-31T02:01:33.547Z,2.58
2022-08-31T02:04:02.753Z,1.67
2022-08-31T02:09:38.652Z,2.50
2022-08-31T02:12:05.512Z,2.20
2022-08-31T02:14:32.118Z,2.75
2022-08-31T02:16:58.774Z,2.50
2022-08-31T02:19:25.471Z,2.80
2022-08-31T02:21:52.120Z,2.40
2022-08-31T02:24:18.885Z,2.42
2022-08-31T02:26:45.572Z,2.70
2022-08-31T02:29:12.254Z,2.53
2022-08-31T02:31:38.958Z,2.53
2022-08-31T02:34:05.573Z,3.28
2022-08-31T02:36:35.684Z,2.45
2022-08-31T02:39:02.632Z,2.38
2022-08-31T02:41:30.991Z,2.30
2022-08-31T02:43:57.681Z,2.28
2022-08-31T02:46:24.452Z,2.13
2022-08-31T02:48:51.226Z,3.33
2022-08-31T02:51:17.993Z,2.28
2022-08-31T02:53:44.721Z,2.38
2022-08-31T02:56:14.386Z,2.25
2022-08-31T02:58:41.756Z,1.63
2022-08-31T03:01:08.940Z,2.40
2022-08-31T03:03:36.087Z,2.58
2022-08-31T03:06:03.278Z,2.03
2022-08-31T03:08:31.290Z,2.50
2022-08-31T03:10:58.043Z,2.60
2022-08-31T03:13:24.612Z,2.00
2022-08-31T03:15:52.287Z,2.10
2022-08-31T03:18:19.074Z,2.38
2022-08-31T03:20:45.718Z,2.03
2022-08-31T03:23:12.412Z,2.17
2022-08-31T03:25:39.687Z,2.60
2022-08-31T03:28:06.804Z,2.60
2022-08-31T03:30:33.560Z,2.70
2022-08-31T03:33:02.758Z,2.40
2022-08-31T03:35:30.415Z,2.30
2022-08-31T03:37:57.670Z,2.30
2022-08-31T03:40:24.716Z,2.03
2022-08-31T03:42:51.553Z,2.30
2022-08-31T03:45:18.389Z,2.42
2022-08-31T03:47:45.739Z,2.33
2022-08-31T03:50:12.853Z,1.95
2022-08-31T03:52:39.504Z,2.00
2022-08-31T03:55:08.741Z,2.70
2022-08-31T03:57:35.773Z,1.75
2022-08-31T04:00:04.125Z,2.42
2022-08-31T04:02:35.461Z,2.33
2022-08-31T04:05:04.361Z,2.47
2022-08-31T04:10:42.413Z,1.90
2022-08-31T04:13:10.315Z,2.42
2022-08-31T04:15:38.168Z,2.45
2022-08-31T04:18:05.839Z,2.60
2022-08-31T04:20:37.274Z,2.20
2022-08-31T04:23:04.558Z,2.53
2022-08-31T04:25:31.230Z,2.47
2022-08-31T04:27:58.348Z,3.05
2022-08-31T04:30:25.332Z,2.10
2022-08-31T04:32:57.510Z,3.22
2022-08-31T04:35:24.143Z,3.75
2022-08-31T04:37:50.790Z,3.95
2022-08-31T04:40:25.969Z,3.78
2022-08-31T04:42:53.250Z,3.00
2022-08-31T04:45:20.077Z,3.20
2022-08-31T04:47:46.849Z,3.22
2022-08-31T04:50:16.597Z,3.15
2022-08-31T04:52:45.263Z,2.38
2022-08-31T04:55:30.705Z,2.90
2022-08-31T04:57:57.560Z,2.42
2022-08-31T05:00:24.935Z,2.65
2022-08-31T05:02:54.252Z,2.72
2022-08-31T05:05:21.050Z,2.38
2022-08-31T05:07:47.816Z,2.92
2022-08-31T05:10:15.186Z,3.95
2022-08-31T05:12:41.771Z,3.10
2022-08-31T05:15:08.972Z,2.25
2022-08-31T05:17:37.038Z,3.00
2022-08-31T05:20:05.969Z,1.85
2022-08-31T05:22:32.776Z,1.92
2022-08-31T05:24:59.521Z,2.00
2022-08-31T05:27:26.390Z,1.80
2022-08-31T05:29:53.004Z,1.67
2022-08-31T05:32:19.658Z,1.70
2022-08-31T05:34:46.432Z,2.00
2022-08-31T05:37:13.184Z,1.70
2022-08-31T05:39:40.178Z,2.22
2022-08-31T05:42:07.748Z,2.10
2022-08-31T05:44:35.897Z,2.40
2022-08-31T05:47:03.789Z,1.77
2022-08-31T05:49:32.129Z,1.80
2022-08-31T05:51:59.813Z,1.80
2022-08-31T05:54:26.930Z,1.67
2022-08-31T05:56:53.616Z,1.85
2022-08-31T05:59:20.680Z,1.63
2022-08-31T06:01:47.653Z,4.30
2022-08-31T06:04:14.549Z,1.73
2022-08-31T06:06:41.352Z,2.70
2022-08-31T06:11:42.278Z,2.08
2022-08-31T06:14:10.334Z,1.85
2022-08-31T06:16:37.735Z,1.50
2022-08-31T06:19:07.416Z,1.52
2022-08-31T06:21:38.840Z,2.22
2022-08-31T06:24:16.482Z,0.95
2022-08-31T06:26:43.053Z,1.05
2022-08-31T06:29:09.763Z,1.27
2022-08-31T06:31:38.941Z,1.42
2022-08-31T06:34:07.413Z,1.13
2022-08-31T06:36:35.470Z,1.15
2022-08-31T06:39:03.526Z,1.20
2022-08-31T06:41:36.854Z,1.00
2022-08-31T06:46:34.335Z,1.13
2022-08-31T06:49:01.540Z,0.90
2022-08-31T06:51:29.064Z,1.17
2022-08-31T06:54:07.635Z,0.90
2022-08-31T06:56:43.312Z,1.02
2022-08-31T06:59:10.280Z,0.77
2022-08-31T07:01:37.201Z,0.80
2022-08-31T07:04:07.225Z,0.88
2022-08-31T07:06:44.055Z,0.95
2022-08-31T07:09:15.986Z,1.17
2022-08-31T07:11:49.117Z,0.95
2022-08-31T07:14:19.659Z,0.88
2022-08-31T07:16:46.691Z,0.95
2022-08-31T07:19:17.979Z,1.08
2022-08-31T07:21:55.715Z,0.75
2022-08-31T07:24:27.972Z,0.82
2022-08-31T07:26:59.787Z,0.68
2022-08-31T07:29:30.566Z,4.55
2022-08-31T07:31:59.564Z,4.13
2022-08-31T07:34:31.171Z,2.03
2022-08-31T07:37:18.508Z,1.40
2022-08-31T07:40:07.775Z,0.77
2022-08-31T07:42:41.473Z,1.13
2022-08-31T07:45:13.503Z,1.00
2022-08-31T07:47:46.197Z,0.80
2022-08-31T07:50:14.584Z,0.75
2022-08-31T07:52:51.903Z,1.10
2022-08-31T07:55:19.846Z,1.10
2022-08-31T07:57:46.879Z,1.00
2022-08-31T08:00:21.403Z,1.08
2022-08-31T08:02:52.948Z,0.90
2022-08-31T08:05:27.227Z,1.60
2022-08-31T08:07:56.241Z,0.90
2022-08-31T08:12:36.410Z,0.60
2022-08-31T08:15:05.385Z,0.70
2022-08-31T08:17:32.701Z,0.70
2022-08-31T08:19:59.366Z,0.70
2022-08-31T08:22:41.890Z,0.90
2022-08-31T08:25:14.201Z,0.52
2022-08-31T08:27:43.874Z,0.73
2022-08-31T08:30:13.922Z,0.65
2022-08-31T08:32:42.208Z,0.85
2022-08-31T08:35:13.612Z,0.60
2022-08-31T08:37:58.093Z,0.63
2022-08-31T08:40:32.433Z,0.60
2022-08-31T08:43:00.044Z,0.68
2022-08-31T08:45:26.935Z,0.60
2022-08-31T08:47:56.984Z,0.50
2022-08-31T08:50:27.896Z,0.60
2022-08-31T08:52:57.647Z,0.80
2022-08-31T08:55:36.990Z,0.63
2022-08-31T08:58:08.038Z,0.77
2022-08-31T09:00:35.001Z,0.68
2022-08-31T09:03:30.943Z,0.60
2022-08-31T09:06:00.455Z,0.70
2022-08-31T09:08:59.075Z,0.60
2022-08-31T09:11:35.660Z,0.55
2022-08-31T09:14:19.199Z,0.60
2022-08-31T09:16:55.222Z,0.60
2022-08-31T09:19:21.915Z,0.68
2022-08-31T09:21:51.706Z,0.70
2022-08-31T09:24:21.009Z,0.55
2022-08-31T09:26:59.046Z,0.50
2022-08-31T09:29:31.953Z,0.80
2022-08-31T09:32:07.771Z,0.38
2022-08-31T09:34:37.637Z,0.60
2022-08-31T09:37:20.663Z,0.60
2022-08-31T09:39:49.681Z,0.80
2022-08-31T09:42:34.097Z,0.85
2022-08-31T09:45:14.097Z,0.52
2022-08-31T09:47:58.466Z,0.80
2022-08-31T09:50:34.737Z,0.50
2022-08-31T09:53:46.419Z,0.70
2022-08-31T09:56:18.568Z,0.60
2022-08-31T09:58:45.142Z,0.50
2022-08-31T10:01:44.495Z,0.50
2022-08-31T10:04:17.044Z,0.57
2022-08-31T10:07:11.356Z,0.57
2022-08-31T10:09:52.353Z,0.50
2022-08-31T10:13:42.227Z,0.30
2022-08-31T10:16:26.202Z,0.70
2022-08-31T10:19:06.561Z,0.82
2022-08-31T10:21:55.204Z,1.33
2022-08-31T10:24:36.902Z,3.20
2022-08-31T10:27:13.014Z,0.52
2022-08-31T10:29:48.661Z,1.00
2022-08-31T10:32:24.447Z,7.57
2022-08-31T10:35:05.807Z,0.98
2022-08-31T10:37:51.087Z,0.90
2022-08-31T10:40:44.223Z,0.70
2022-08-31T10:43:11.086Z,1.00
2022-08-31T10:45:43.016Z,0.90
2022-08-31T10:48:12.296Z,0.88
2022-08-31T10:50:46.631Z,0.95
2022-08-31T10:53:47.234Z,0.85
2022-08-31T10:56:37.397Z,0.80
2022-08-31T10:59:23.026Z,0.55
2022-08-31T11:02:14.372Z,0.43
2022-08-31T11:04:58.622Z,0.60
2022-08-31T11:08:00.717Z,1.13
2022-08-31T11:10:49.918Z,0.65
2022-08-31T11:13:57.187Z,0.60
2022-08-31T11:16:42.289Z,1.27
2022-08-31T11:19:51.002Z,0.70
2022-08-31T11:22:37.391Z,0.70
2022-08-31T11:25:32.006Z,0.60
2022-08-31T11:28:05.952Z,0.82
2022-08-31T11:30:41.337Z,0.65
2022-08-31T11:33:19.963Z,0.73
2022-08-31T11:35:49.930Z,0.85
2022-08-31T11:38:43.131Z,0.57
2022-08-31T11:41:14.124Z,0.55
2022-08-31T11:43:49.068Z,0.47
2022-08-31T11:46:40.076Z,0.50
2022-08-31T11:49:10.940Z,0.80
2022-08-31T11:51:45.062Z,0.55
2022-08-31T11:54:26.690Z,0.50
2022-08-31T11:56:57.013Z,3.03
2022-08-31T11:59:26.378Z,0.70
2022-08-31T12:01:56.684Z,1.95
2022-08-31T12:04:42.126Z,0.50
2022-08-31T12:07:13.592Z,0.65
2022-08-31T12:10:03.226Z,0.50
2022-08-31T12:25:48.366Z,0.60
2022-08-31T12:28:35.969Z,0.60
2022-08-31T12:31:09.902Z,0.57
2022-08-31T12:33:38.849Z,0.40
2022-08-31T12:36:33.997Z,0.70
2022-08-31T12:39:12.782Z,0.70
2022-08-31T12:41:45.823Z,1.98
2022-08-31T12:44:19.628Z,0.80
2022-08-31T12:47:01.926Z,1.85
2022-08-31T12:49:49.803Z,0.60
2022-08-31T12:52:38.140Z,0.60
2022-08-31T12:55:13.247Z,0.60
2022-08-31T12:57:49.939Z,0.50
2022-08-31T13:00:28.875Z,0.60
2022-08-31T13:03:01.498Z,0.63
2022-08-31T13:05:31.052Z,0.70
2022-08-31T13:07:59.491Z,0.73
2022-08-31T13:10:36.683Z,0.52
2022-08-31T13:13:10.040Z,1.48
2022-08-31T13:15:40.265Z,0.82
2022-08-31T13:18:28.957Z,0.90
2022-08-31T13:21:05.918Z,0.70
2022-08-31T13:23:38.894Z,1.20
2022-08-31T13:26:15.202Z,0.80
2022-08-31T13:28:42.042Z,0.50
2022-08-31T13:31:09.874Z,0.60
2022-08-31T13:33:40.882Z,2.88
2022-08-31T13:36:16.509Z,2.10
2022-08-31T13:38:53.439Z,0.93
2022-08-31T13:41:30.820Z,0.85
2022-08-31T13:44:02.765Z,0.90
2022-08-31T13:47:00.270Z,0.70
2022-08-31T13:49:35.874Z,0.68
2022-08-31T13:52:06.396Z,0.60
2022-08-31T13:54:36.831Z,0.65
2022-08-31T13:57:28.386Z,0.47
2022-08-31T14:00:32.592Z,0.60
2022-08-31T14:03:46.658Z,0.70
2022-08-31T14:06:29.731Z,0.73
2022-08-31T14:09:03.790Z,0.73
2022-08-31T14:11:34.061Z,1.42
2022-08-31T14:15:50.434Z,0.80
2022-08-31T14:18:28.438Z,0.57
2022-08-31T14:21:20.574Z,0.70
2022-08-31T14:24:02.057Z,1.35
2022-08-31T14:26:41.601Z,0.70
2022-08-31T14:29:14.402Z,0.70
2022-08-31T14:31:48.698Z,0.70
2022-08-31T14:34:25.980Z,0.90
2022-08-31T14:37:20.065Z,1.05
2022-08-31T14:39:57.750Z,0.77
2022-08-31T14:42:32.532Z,0.73
2022-08-31T14:45:06.822Z,0.50
2022-08-31T14:47:44.046Z,0.50
2022-08-31T14:50:18.775Z,0.60
2022-08-31T14:52:53.054Z,0.75
2022-08-31T14:55:20.926Z,0.70
2022-08-31T14:57:58.211Z,0.63
2022-08-31T15:00:26.021Z,0.70
2022-08-31T15:02:53.617Z,0.60
2022-08-31T15:05:23.559Z,0.57
2022-08-31T15:07:53.103Z,0.68
2022-08-31T15:10:22.974Z,0.60
2022-08-31T15:12:50.577Z,0.43
2022-08-31T15:15:20.644Z,0.63
2022-08-31T15:17:50.617Z,0.70
2022-08-31T15:20:23.098Z,0.80
2022-08-31T15:22:50.479Z,14.77
2022-08-31T15:25:23.115Z,2.13
2022-08-31T15:27:49.735Z,0.90
2022-08-31T15:30:19.769Z,1.05
2022-08-31T15:32:46.952Z,0.80
2022-08-31T15:35:23.558Z,0.70
2022-08-31T15:38:01.337Z,0.80
2022-08-31T15:40:36.595Z,0.80
2022-08-31T15:43:15.957Z,1.33
2022-08-31T15:45:43.147Z,0.57
2022-08-31T15:48:28.335Z,0.82
2022-08-31T15:51:00.516Z,0.70
2022-08-31T15:53:30.762Z,1.15
2022-08-31T15:56:06.489Z,0.65
2022-08-31T15:58:35.452Z,0.88
2022-08-31T16:01:05.318Z,0.90
2022-08-31T16:03:35.202Z,0.60
2022-08-31T16:06:04.311Z,0.57
2022-08-31T16:08:31.001Z,0.90
2022-08-31T16:10:57.587Z,1.00
2022-08-31T16:16:37.414Z,0.77
2022-08-31T16:19:05.518Z,0.75
2022-08-31T16:21:35.782Z,1.08
2022-08-31T16:24:08.178Z,0.60
2022-08-31T16:26:38.733Z,6.07
2022-08-31T16:29:13.094Z,2.60
2022-08-31T16:31:41.361Z,1.77
2022-08-31T16:34:08.909Z,1.20
2022-08-31T16:36:36.420Z,1.48
2022-08-31T16:39:04.240Z,1.77
2022-08-31T16:41:32.593Z,1.20
2022-08-31T16:44:19.180Z,1.02
2022-08-31T16:46:46.954Z,1.02
2022-08-31T16:49:32.318Z,1.80
2022-08-31T16:52:00.765Z,2.13
2022-08-31T16:54:29.062Z,1.33
2022-08-31T16:56:57.716Z,0.80
2022-08-31T16:59:29.667Z,0.50
2022-08-31T17:01:56.897Z,0.80
2022-08-31T17:04:50.332Z,0.70
2022-08-31T17:07:14.844Z,0.70
2022-08-31T17:09:42.665Z,0.60
2022-08-31T17:12:13.908Z,0.85
2022-08-31T17:14:47.177Z,0.95
2022-08-31T17:17:17.230Z,0.75
2022-08-31T17:19:45.373Z,1.10
2022-08-31T17:22:19.770Z,1.40
2022-08-31T17:24:50.003Z,1.60
2022-08-31T17:27:20.650Z,3.58
2022-08-31T17:29:52.032Z,4.55
2022-08-31T17:32:24.564Z,5.18
2022-08-31T17:34:54.477Z,7.45
2022-08-31T17:37:28.486Z,6.03
2022-08-31T17:39:55.996Z,4.38
2022-08-31T17:42:27.289Z,3.58
2022-08-31T17:44:55.412Z,1.75
2022-08-31T17:47:23.899Z,1.50
2022-08-31T17:49:51.679Z,1.77
2022-08-31T17:52:20.763Z,1.60
2022-08-31T17:54:48.593Z,0.93
2022-08-31T17:57:16.956Z,0.90
2022-08-31T17:59:51.289Z,0.70
2022-08-31T18:02:22.066Z,1.10
2022-08-31T18:04:49.204Z,1.13
2022-08-31T18:07:18.632Z,1.13
2022-08-31T18:09:48.527Z,1.65
2022-08-31T18:12:17.201Z,2.03
2022-08-31T18:17:49.443Z,1.77
2022-08-31T18:20:17.186Z,2.10
2022-08-31T18:22:52.389Z,2.20
2022-08-31T18:25:22.338Z,3.65
2022-08-31T18:27:49.327Z,3.10
2022-08-31T18:30:19.295Z,2.50
2022-08-31T18:32:47.591Z,2.47
2022-08-31T18:35:14.537Z,1.15
2022-08-31T18:37:42.085Z,1.30
2022-08-31T18:40:28.429Z,1.70
2022-08-31T18:43:15.012Z,1.02
2022-08-31T18:45:42.245Z,1.00
2022-08-31T18:48:25.738Z,1.48
2022-08-31T18:50:59.118Z,1.80
2022-08-31T18:53:30.808Z,3.85
2022-08-31T18:55:59.552Z,3.45
2022-08-31T18:58:36.338Z,3.05
2022-08-31T19:01:05.034Z,1.95
2022-08-31T19:03:31.966Z,1.98
2022-08-31T19:06:01.261Z,2.00
2022-08-31T19:08:33.605Z,2.00
2022-08-31T19:11:01.365Z,2.45
2022-08-31T19:13:32.212Z,2.10
2022-08-31T19:16:10.694Z,2.38
2022-08-31T19:18:44.147Z,2.07
2022-08-31T19:21:31.451Z,2.10
2022-08-31T19:24:00.504Z,3.33
2022-08-31T19:26:33.555Z,3.58
2022-08-31T19:29:09.421Z,2.78
2022-08-31T19:31:39.420Z,2.80
2022-08-31T19:34:16.930Z,3.38
2022-08-31T19:36:56.723Z,4.95
2022-08-31T19:39:29.954Z,17.50
2022-08-31T19:42:07.274Z,11.05
2022-08-31T19:47:39.237Z,11.32
2022-08-31T19:50:13.692Z,7.25
2022-08-31T19:52:44.082Z,6.03
2022-08-31T19:55:12.360Z,4.85
2022-08-31T19:57:43.643Z,3.85
2022-08-31T20:00:11.928Z,2.45
2022-08-31T20:02:42.407Z,2.35
2022-08-31T20:05:09.830Z,1.80
2022-08-31T20:07:41.610Z,1.63
2022-08-31T20:10:14.578Z,2.22
2022-08-31T20:12:47.186Z,1.57
2022-08-31T20:18:46.314Z,2.40
2022-08-31T20:21:17.628Z,1.63
2022-08-31T20:23:45.778Z,1.65
2022-08-31T20:26:20.840Z,1.98
2022-08-31T20:28:51.133Z,1.73
2022-08-31T20:31:41.681Z,1.50
2022-08-31T20:34:34.146Z,1.58
2022-08-31T20:37:01.650Z,1.67
2022-08-31T20:39:42.173Z,2.08
2022-08-31T20:42:11.846Z,1.90
2022-08-31T20:44:43.877Z,1.98
2022-08-31T20:47:37.112Z,1.58
2022-08-31T20:50:07.362Z,1.67
2022-08-31T20:52:39.258Z,2.42
2022-08-31T20:55:07.871Z,1.77
2022-08-31T20:57:40.945Z,2.03
2022-08-31T21:00:10.662Z,2.20
2022-08-31T21:02:43.204Z,1.50
2022-08-31T21:05:36.677Z,1.90
2022-08-31T21:07:58.198Z,1.92
2022-08-31T21:10:36.557Z,2.17
2022-08-31T21:13:09.547Z,2.28
2022-08-31T21:15:43.397Z,2.30
2022-08-31T21:18:11.208Z,1.75
2022-08-31T21:20:38.437Z,2.00
2022-08-31T21:23:05.356Z,1.98
2022-08-31T21:25:32.243Z,1.40
2022-08-31T21:28:00.176Z,2.05
2022-08-31T21:30:30.300Z,1.80
2022-08-31T21:32:57.210Z,2.00
2022-08-31T21:35:25.305Z,2.58
2022-08-31T21:37:56.165Z,2.15
2022-08-31T21:40:23.181Z,1.73
2022-08-31T21:42:52.700Z,2.33
2022-08-31T21:45:55.154Z,2.08
2022-08-31T21:48:25.891Z,1.83
2022-08-31T21:51:02.163Z,2.53
2022-08-31T21:53:29.153Z,2.55
2022-08-31T21:55:56.401Z,2.20
2022-08-31T21:58:23.794Z,2.95
2022-08-31T22:00:51.149Z,2.80
2022-08-31T22:06:26.771Z,2.58
2022-08-31T22:08:57.601Z,3.33
2022-08-31T22:11:24.737Z,2.30
2022-08-31T22:13:54.711Z,2.50
2022-08-31T22:19:36.737Z,2.60
2022-08-31T22:22:06.037Z,2.47
2022-08-31T22:24:34.276Z,2.53
2022-08-31T22:27:03.445Z,2.03
2022-08-31T22:29:32.763Z,2.17
2022-08-31T22:32:03.194Z,2.25
2022-08-31T22:34:29.923Z,2.38
2022-08-31T22:36:57.012Z,2.28
2022-08-31T22:39:26.953Z,2.33
2022-08-31T22:41:54.275Z,2.10
2022-08-31T22:44:25.072Z,3.28
2022-08-31T22:46:52.848Z,2.60
2022-08-31T22:49:19.776Z,2.38
2022-08-31T22:51:49.222Z,2.40
2022-08-31T22:54:17.919Z,2.88
2022-08-31T22:56:45.602Z,4.05
2022-08-31T22:59:14.722Z,3.67
2022-08-31T23:01:47.755Z,3.40
2022-08-31T23:04:20.245Z,3.22
2022-08-31T23:06:49.256Z,3.30
2022-08-31T23:09:21.542Z,4.10
2022-08-31T23:11:51.792Z,4.05
2022-08-31T23:14:21.261Z,3.80
2022-08-31T23:17:00.800Z,2.75
2022-08-31T23:19:37.175Z,3.15
2022-08-31T23:22:10.920Z,3.50
2022-08-31T23:24:47.123Z,2.90
2022-08-31T23:27:17.391Z,3.00
2022-08-31T23:29:50.277Z,2.20
2022-08-31T23:32:19.593Z,2.30
2022-08-31T23:34:51.030Z,2.20
2022-08-31T23:37:17.925Z,2.25
2022-08-31T23:39:46.390Z,2.28
2022-08-31T23:42:16.214Z,2.20
2022-08-31T23:44:44.846Z,1.92
2022-08-31T23:47:17.049Z,1.92
2022-08-31T23:49:44.646Z,1.98
2022-08-31T23:52:12.480Z,1.70
2022-08-31T23:54:40.042Z,1.70
2022-08-31T23:57:08.583Z,1.92
